Time;durP1;ratioP1;P1;durP2;ratioP2;P2;SDS_P1;SDS_P2;PMS_P1;PMS_P2;Temp;Humidity;BMP_temperature;BMP_pressure;BME280_temperature;BME280_humidity;BME280_pressure;Samples;Min_cycle;Max_cycle;Signal;HPM_P1;HPM_P2
2023/01/13 00:00:33;;;;;;;6.32;3.25;;;8.70;82.50;;;;;;5030401;28;20095;-66
2023/01/13 00:02:59;;;;;;;0.00;0.00;;;8.60;82.50;;;;;;5028828;28;20045;-66
2023/01/13 00:05:25;;;;;;;0.00;0.00;;;8.60;82.50;;;;;;5030912;28;20045;-66
2023/01/13 00:07:51;;;;;;;4.40;1.55;;;8.60;83.00;;;;;;5021569;28;20540;-66
2023/01/13 00:10:17;;;;;;;0.15;0.15;;;8.60;83.10;;;;;;5010693;28;20076;-66
2023/01/13 00:12:42;;;;;;;0.55;0.55;;;8.60;83.10;;;;;;5029443;28;20996;-66
2023/01/13 00:15:10;;;;;;;0.47;0.47;;;8.60;82.80;;;;;;5030633;28;20045;-66
2023/01/13 00:17:35;;;;;;;0.32;0.32;;;8.60;83.00;;;;;;5012847;28;20156;-66
2023/01/13 00:20:01;;;;;;;0.45;0.45;;;8.60;83.50;;;;;;4978697;28;20511;-65
2023/01/13 00:22:27;;;;;;;0.00;0.00;;;8.60;83.50;;;;;;4977063;28;20080;-66
2023/01/13 00:24:52;;;;;;;0.20;0.20;;;8.60;83.40;;;;;;5010741;28;20070;-65
2023/01/13 00:27:18;;;;;;;0.00;0.00;;;8.60;83.50;;;;;;5010842;28;20050;-65
2023/01/13 00:29:44;;;;;;;2.75;2.45;;;8.60;83.40;;;;;;5012002;28;20048;-65
2023/01/13 00:32:09;;;;;;;0.00;0.00;;;8.70;83.00;;;;;;5010672;28;20045;-66
2023/01/13 00:34:35;;;;;;;0.08;0.08;;;8.60;82.90;;;;;;5010197;28;20038;-65
2023/01/13 00:37:00;;;;;;;0.57;0.57;;;8.60;82.60;;;;;;5011579;28;20087;-66
2023/01/13 00:39:26;;;;;;;1.65;0.95;;;8.60;82.00;;;;;;5011481;28;20042;-65
2023/01/13 00:44:36;;;;;;;0.00;0.00;;;8.60;81.80;;;;;;5009227;28;20050;-65
2023/01/13 00:47:01;;;;;;;0.15;0.15;;;8.50;81.20;;;;;;4992877;28;20548;-65
2023/01/13 00:49:27;;;;;;;0.00;0.00;;;8.50;81.30;;;;;;5012742;28;20041;-65
2023/01/13 00:51:52;;;;;;;0.13;0.13;;;8.60;81.50;;;;;;5013899;28;20049;-66
2023/01/13 00:54:18;;;;;;;0.10;0.10;;;8.50;81.30;;;;;;5010059;28;20046;-66
2023/01/13 00:56:43;;;;;;;1.55;0.95;;;8.50;81.50;;;;;;4992640;28;20088;-66
2023/01/13 00:59:11;;;;;;;7.13;1.35;;;8.40;81.60;;;;;;5010831;28;20510;-66
2023/01/13 01:01:38;;;;;;;0.40;0.40;;;8.50;81.50;;;;;;5010101;28;20137;-66
2023/01/13 01:04:04;;;;;;;0.52;0.52;;;8.40;81.60;;;;;;5009834;28;20054;-66
2023/01/13 01:06:30;;;;;;;0.10;0.10;;;8.40;81.90;;;;;;5024459;28;20041;-65
2023/01/13 01:08:56;;;;;;;0.20;0.20;;;8.30;82.20;;;;;;5020409;28;20047;-65
2023/01/13 01:11:26;;;;;;;1.38;1.27;;;8.30;82.70;;;;;;5029643;28;20041;-65
2023/01/13 01:13:54;;;;;;;5.20;0.55;;;8.30;83.00;;;;;;5029532;28;20042;-66
2023/01/13 01:16:22;;;;;;;2.53;2.08;;;8.20;83.20;;;;;;5027251;28;20128;-65
2023/01/13 01:18:51;;;;;;;0.08;0.08;;;8.20;83.30;;;;;;5028802;28;20033;-66
2023/01/13 01:21:18;;;;;;;0.20;0.20;;;8.20;83.50;;;;;;5029376;28;20175;-66
2023/01/13 01:23:44;;;;;;;0.00;0.00;;;8.20;83.40;;;;;;5029293;28;20128;-66
2023/01/13 01:26:15;;;;;;;0.10;0.10;;;8.30;83.60;;;;;;5029391;28;20180;-66
2023/01/13 01:28:41;;;;;;;2.53;2.25;;;8.20;83.60;;;;;;5027783;28;20041;-66
2023/01/13 01:31:15;;;;;;;0.00;0.00;;;8.30;83.60;;;;;;5028206;28;20057;-65
2023/01/13 01:33:41;;;;;;;0.00;0.00;;;8.20;83.50;;;;;;4997582;28;20053;-66
2023/01/13 01:36:08;;;;;;;1.20;0.98;;;8.20;83.40;;;;;;5010715;28;20049;-66
2023/01/13 01:38:34;;;;;;;0.00;0.00;;;8.20;83.40;;;;;;5027790;28;20490;-66
2023/01/13 01:41:00;;;;;;;1.27;1.00;;;8.20;83.50;;;;;;5026180;28;20123;-65
2023/01/13 01:44:04;;;;;;;0.85;0.75;;;8.20;83.40;;;;;;5029102;28;20068;-65
2023/01/13 01:46:43;;;;;;;2.00;1.80;;;8.20;83.60;;;;;;5029055;28;20044;-65
2023/01/13 01:49:31;;;;;;;0.00;0.00;;;8.20;83.60;;;;;;5027220;28;20085;-65
2023/01/13 01:52:05;;;;;;;1.35;1.25;;;8.30;83.80;;;;;;5028993;28;20474;-65
2023/01/13 01:54:46;;;;;;;0.22;0.17;;;8.40;83.60;;;;;;5026736;28;20084;-65
2023/01/13 01:57:18;;;;;;;2.30;2.13;;;8.30;83.10;;;;;;5028458;28;20052;-65
2023/01/13 01:59:44;;;;;;;0.05;0.05;;;8.40;83.20;;;;;;5015692;28;20782;-65
2023/01/13 02:02:10;;;;;;;0.90;0.90;;;8.30;83.00;;;;;;5009496;28;20145;-65
2023/01/13 02:04:40;;;;;;;0.00;0.00;;;8.30;83.40;;;;;;5020452;28;20064;-65
2023/01/13 02:07:05;;;;;;;0.10;0.10;;;8.40;83.40;;;;;;5026898;28;20077;-65
2023/01/13 02:09:32;;;;;;;0.10;0.10;;;8.40;83.50;;;;;;5024183;28;20076;-65
2023/01/13 02:14:43;;;;;;;0.10;0.10;;;8.30;83.70;;;;;;5016930;28;20046;-65
2023/01/13 02:17:31;;;;;;;1.15;1.08;;;8.40;84.00;;;;;;5020578;28;20042;-65
2023/01/13 02:20:15;;;;;;;0.10;0.10;;;8.30;83.70;;;;;;5028362;28;20056;-65
2023/01/13 02:26:31;;;;;;;0.05;0.05;;;8.30;83.90;;;;;;4997469;28;20042;-65
2023/01/13 02:32:10;;;;;;;0.55;0.55;;;8.40;84.00;;;;;;5028837;28;20053;-65
2023/01/13 02:34:45;;;;;;;0.00;0.00;;;8.40;84.30;;;;;;5019479;28;20044;-65
2023/01/13 02:37:21;;;;;;;0.28;0.28;;;8.40;84.20;;;;;;5011522;28;20045;-65
2023/01/13 02:40:09;;;;;;;0.90;0.85;;;8.50;84.30;;;;;;5012796;28;20050;-65
2023/01/13 02:45:34;;;;;;;0.08;0.08;;;8.60;84.30;;;;;;5014367;28;20045;-65
2023/01/13 02:48:04;;;;;;;0.10;0.10;;;8.60;84.10;;;;;;5012308;28;20065;-65
2023/01/13 02:50:38;;;;;;;1.45;1.35;;;8.60;84.20;;;;;;5012651;28;20273;-65
2023/01/13 02:53:10;;;;;;;0.32;0.32;;;8.60;83.90;;;;;;5019789;28;20388;-65
2023/01/13 02:55:47;;;;;;;0.73;0.73;;;8.60;83.80;;;;;;5028959;28;20049;-65
2023/01/13 02:58:16;;;;;;;0.00;0.00;;;8.60;83.80;;;;;;5031987;28;20067;-65
2023/01/13 03:00:44;;;;;;;0.10;0.10;;;8.60;83.60;;;;;;5014280;28;20049;-66
2023/01/13 03:03:10;;;;;;;0.10;0.10;;;8.60;83.70;;;;;;5031927;28;20049;-66
2023/01/13 03:05:36;;;;;;;0.00;0.00;;;8.70;83.60;;;;;;5019196;28;20117;-65
2023/01/13 03:08:31;;;;;;;0.30;0.30;;;8.70;83.30;;;;;;5031614;28;20410;-65
2023/01/13 03:11:07;;;;;;;0.45;0.45;;;8.70;83.40;;;;;;5018615;28;20578;-65
2023/01/13 03:13:53;;;;;;;0.00;0.00;;;8.70;82.70;;;;;;5014392;28;20136;-65
2023/01/13 03:16:52;;;;;;;2.92;1.65;;;8.80;82.80;;;;;;5016342;28;20076;-65
2023/01/13 03:19:45;;;;;;;8.48;0.32;;;8.90;82.70;;;;;;5025199;28;20045;-65
2023/01/13 03:22:29;;;;;;;0.80;0.80;;;8.70;83.10;;;;;;5031660;28;20049;-65
2023/01/13 03:25:27;;;;;;;3.15;1.65;;;8.80;83.50;;;;;;5024184;28;20045;-65
2023/01/13 03:27:59;;;;;;;0.00;0.00;;;8.70;83.60;;;;;;5004306;28;20045;-65
2023/01/13 03:30:31;;;;;;;1.15;0.80;;;8.60;83.90;;;;;;5031163;28;20042;-65
2023/01/13 03:33:39;;;;;;;1.48;1.23;;;8.60;84.00;;;;;;5031632;28;20111;-65
2023/01/13 03:36:09;;;;;;;0.20;0.20;;;8.60;84.30;;;;;;4974841;28;20494;-64
2023/01/13 03:38:41;;;;;;;0.00;0.00;;;8.60;84.20;;;;;;5011813;28;20041;-65
2023/01/13 03:41:36;;;;;;;;;;;8.60;83.70;;;;;;5011865;28;20068;-65
2023/01/13 03:44:23;;;;;;;1.30;1.20;;;8.60;83.90;;;;;;4993666;28;20023;-65
2023/01/13 03:47:08;;;;;;;0.55;0.55;;;8.60;83.80;;;;;;5027511;28;20041;-65
2023/01/13 03:49:46;;;;;;;0.08;0.08;;;8.60;83.80;;;;;;5030529;28;20049;-65
2023/01/13 03:52:18;;;;;;;1.67;1.58;;;8.50;84.10;;;;;;5031187;28;20414;-65
2023/01/13 03:54:50;;;;;;;5.15;1.40;;;8.60;84.10;;;;;;5030091;28;20383;-65
2023/01/13 03:57:18;;;;;;;0.00;0.00;;;8.50;84.20;;;;;;5012990;28;20154;-65
2023/01/13 03:59:48;;;;;;;0.30;0.30;;;8.50;84.20;;;;;;5030590;28;20057;-65
2023/01/13 04:02:17;;;;;;;0.03;0.03;;;8.50;84.40;;;;;;5013198;28;20049;-65
2023/01/13 04:04:58;;;;;;;0.10;0.10;;;8.50;84.10;;;;;;5027047;28;20049;-65
2023/01/13 04:07:45;;;;;;;0.00;0.00;;;8.60;83.90;;;;;;5011078;28;20046;-64
2023/01/13 04:10:13;;;;;;;0.30;0.30;;;8.60;83.60;;;;;;5011328;28;20087;-65
2023/01/13 04:13:11;;;;;;;0.00;0.00;;;8.50;83.80;;;;;;5026572;28;20037;-65
2023/01/13 04:15:42;;;;;;;0.00;0.00;;;8.50;83.90;;;;;;5000195;28;20058;-65
2023/01/13 04:18:22;;;;;;;0.20;0.20;;;8.60;83.70;;;;;;5010833;28;20042;-65
2023/01/13 04:20:50;;;;;;;0.10;0.10;;;8.60;83.30;;;;;;5015580;28;20407;-65
2023/01/13 04:23:17;;;;;;;1.13;0.73;;;8.60;83.10;;;;;;5009748;28;20041;-65
2023/01/13 04:25:44;;;;;;;0.30;0.30;;;8.70;82.70;;;;;;5013976;28;20675;-65
2023/01/13 04:28:10;;;;;;;2.05;1.85;;;8.60;82.90;;;;;;5023788;28;20390;-65
2023/01/13 04:30:36;;;;;;;0.10;0.10;;;8.70;82.30;;;;;;5013209;28;20085;-65
2023/01/13 04:33:05;;;;;;;0.00;0.00;;;8.70;81.70;;;;;;5010221;28;20469;-65
2023/01/13 04:35:32;;;;;;;0.45;0.45;;;8.70;81.90;;;;;;5011704;28;20517;-66
2023/01/13 04:38:07;;;;;;;0.00;0.00;;;8.70;81.80;;;;;;5010631;28;20129;-65
2023/01/13 04:40:33;;;;;;;0.00;0.00;;;8.70;81.60;;;;;;5022307;28;20099;-66
2023/01/13 04:42:58;;;;;;;0.00;0.00;;;8.90;81.10;;;;;;5030227;28;20042;-66
2023/01/13 04:45:24;;;;;;;0.00;0.00;;;8.90;81.00;;;;;;5016044;28;20041;-65
2023/01/13 04:47:50;;;;;;;0.10;0.10;;;8.70;79.90;;;;;;5029600;28;20055;-65
2023/01/13 04:50:19;;;;;;;1.13;1.13;;;8.70;80.30;;;;;;5030078;28;20061;-65
2023/01/13 04:52:46;;;;;;;0.00;0.00;;;8.70;80.80;;;;;;5029993;28;20685;-65
2023/01/13 04:55:12;;;;;;;0.13;0.13;;;8.60;80.30;;;;;;5020615;28;20502;-65
2023/01/13 04:57:37;;;;;;;2.83;2.35;;;8.60;80.30;;;;;;5016400;28;20052;-65
2023/01/13 05:00:09;;;;;;;0.00;0.00;;;8.70;80.10;;;;;;5016335;28;20053;-65
2023/01/13 05:02:34;;;;;;;9.55;1.05;;;8.70;80.10;;;;;;4990171;28;20047;-65
2023/01/13 05:05:00;;;;;;;0.68;0.52;;;8.70;80.10;;;;;;5016391;28;20041;-65
2023/01/13 05:07:25;;;;;;;0.00;0.00;;;8.80;79.50;;;;;;5029824;28;20045;-65
2023/01/13 05:09:51;;;;;;;0.10;0.10;;;8.80;79.70;;;;;;5029830;28;20044;-65
2023/01/13 05:17:45;;;;;;;0.00;0.00;;;8.80;79.70;;;;;;5011972;28;20057;-65
2023/01/13 05:20:12;;;;;;;0.15;0.15;;;8.80;79.60;;;;;;4996314;28;20415;-65
2023/01/13 05:25:39;;;;;;;0.20;0.20;;;8.70;79.50;;;;;;4966310;28;20054;-65
2023/01/13 05:28:05;;;;;;;0.08;0.08;;;8.80;80.00;;;;;;4991662;28;20038;-65
2023/01/13 05:30:34;;;;;;;0.95;0.70;;;8.80;79.80;;;;;;5028741;28;20037;-65
2023/01/13 05:33:00;;;;;;;0.00;0.00;;;8.70;79.90;;;;;;5028146;28;20056;-66
2023/01/13 05:35:27;;;;;;;4.43;4.00;;;8.80;79.80;;;;;;5009597;28;20042;-64
2023/01/13 05:37:54;;;;;;;2.78;2.53;;;8.80;80.00;;;;;;5009448;28;20402;-65
2023/01/13 05:43:18;;;;;;;0.08;0.08;;;8.80;80.60;;;;;;4989597;28;20491;-66
2023/01/13 05:45:45;;;;;;;0.85;0.85;;;8.80;80.70;;;;;;4989702;28;20050;-65
2023/01/13 05:48:11;;;;;;;0.10;0.10;;;8.80;81.10;;;;;;4993531;28;20121;-65
2023/01/13 05:50:37;;;;;;;0.13;0.13;;;8.80;81.20;;;;;;5029185;28;20129;-66
2023/01/13 05:53:03;;;;;;;0.00;0.00;;;8.70;81.40;;;;;;5016218;28;20574;-65
2023/01/13 05:55:29;;;;;;;0.00;0.00;;;8.60;81.70;;;;;;5001103;28;20044;-65
2023/01/13 05:57:54;;;;;;;0.10;0.10;;;8.60;81.60;;;;;;5014668;28;20049;-64
2023/01/13 06:00:20;;;;;;;0.00;0.00;;;8.60;81.90;;;;;;5007009;28;20046;-64
2023/01/13 06:02:46;;;;;;;0.00;0.00;;;8.70;81.50;;;;;;5006970;28;20072;-65
2023/01/13 06:05:11;;;;;;;0.40;0.40;;;8.70;81.30;;;;;;5007944;28;20061;-65
2023/01/13 06:07:37;;;;;;;0.63;0.63;;;8.70;81.20;;;;;;4989751;28;20054;-65
2023/01/13 06:10:03;;;;;;;6.18;2.95;;;8.70;81.20;;;;;;5006362;28;20046;-65
2023/01/13 06:12:29;;;;;;;0.20;0.20;;;8.80;81.00;;;;;;5009442;28;20052;-65
2023/01/13 06:14:54;;;;;;;0.95;0.90;;;8.70;81.70;;;;;;5010901;28;20046;-64
2023/01/13 06:17:20;;;;;;;0.22;0.22;;;8.70;82.00;;;;;;5011099;28;20105;-65
2023/01/13 06:19:45;;;;;;;0.00;0.00;;;8.60;82.20;;;;;;5011340;28;20058;-64
2023/01/13 06:22:22;;;;;;;17.00;1.75;;;8.60;82.50;;;;;;5011097;28;20482;-65
2023/01/13 06:24:54;;;;;;;0.20;0.20;;;8.50;82.90;;;;;;4993581;28;20041;-64
2023/01/13 06:27:21;;;;;;;0.00;0.00;;;8.50;83.20;;;;;;5010353;28;20528;-65
2023/01/13 06:29:47;;;;;;;0.00;0.00;;;8.40;83.50;;;;;;5011320;28;20048;-65
2023/01/13 06:32:25;;;;;;;0.10;0.10;;;8.40;83.80;;;;;;5010794;28;20041;-65
2023/01/13 06:34:59;;;;;;;0.00;0.00;;;8.40;84.10;;;;;;5011180;28;20061;-64
2023/01/13 06:37:26;;;;;;;31.52;1.75;;;8.40;83.80;;;;;;5010387;28;21743;-65
2023/01/13 06:39:57;;;;;;;1.45;1.35;;;8.20;84.70;;;;;;5010948;28;20046;-64
2023/01/13 06:45:08;;;;;;;0.20;0.20;;;8.00;86.10;;;;;;5010664;28;20089;-65
2023/01/13 06:47:34;;;;;;;0.00;0.00;;;8.10;85.80;;;;;;5010261;28;20491;-65
2023/01/13 06:50:00;;;;;;;0.00;0.00;;;8.10;86.40;;;;;;5024386;28;20045;-65
2023/01/13 06:52:29;;;;;;;0.00;0.00;;;8.00;86.60;;;;;;5014132;28;20054;-65
2023/01/13 06:54:55;;;;;;;0.00;0.00;;;7.90;86.80;;;;;;5009929;28;20099;-65
2023/01/13 06:57:20;;;;;;;0.00;0.00;;;7.90;87.10;;;;;;5010010;28;20105;-65
2023/01/13 06:59:46;;;;;;;0.00;0.00;;;7.90;87.20;;;;;;5009531;28;20096;-65
2023/01/13 07:02:12;;;;;;;0.00;0.00;;;7.80;87.40;;;;;;5010308;28;20045;-65
2023/01/13 07:04:37;;;;;;;0.13;0.13;;;7.80;87.50;;;;;;5016713;28;20073;-65
2023/01/13 07:07:03;;;;;;;0.00;0.00;;;7.80;87.60;;;;;;5009549;28;20038;-65
2023/01/13 07:09:28;;;;;;;1.40;1.30;;;7.90;87.50;;;;;;5010810;28;20534;-64
2023/01/13 07:11:54;;;;;;;0.38;0.38;;;7.80;87.70;;;;;;5012005;28;20125;-65
2023/01/13 07:17:04;;;;;;;0.05;0.05;;;7.80;87.10;;;;;;5011278;28;20050;-67
2023/01/13 07:19:29;;;;;;;0.15;0.15;;;7.80;87.00;;;;;;5011506;28;20046;-67
2023/01/13 07:21:55;;;;;;;0.10;0.10;;;7.80;87.40;;;;;;5010716;28;20042;-69
2023/01/13 07:24:21;;;;;;;0.00;0.00;;;7.80;87.40;;;;;;5009865;28;20088;-69
2023/01/13 07:26:47;;;;;;;0.00;0.00;;;7.80;87.60;;;;;;5011455;28;20491;-66
2023/01/13 07:29:13;;;;;;;0.75;0.75;;;7.90;87.10;;;;;;5011809;28;20053;-68
2023/01/13 07:31:38;;;;;;;0.00;0.00;;;8.00;86.80;;;;;;5011455;28;20042;-69
2023/01/13 07:34:06;;;;;;;0.25;0.25;;;7.90;86.40;;;;;;5011297;28;20060;-69
2023/01/13 07:36:31;;;;;;;0.15;0.15;;;8.00;86.50;;;;;;5010627;28;20064;-68
2023/01/13 07:38:57;;;;;;;0.00;0.00;;;8.00;86.00;;;;;;4990091;28;20038;-66
2023/01/13 07:44:09;;;;;;;0.00;0.00;;;8.10;85.70;;;;;;5011055;28;20140;-70
2023/01/13 07:46:36;;;;;;;0.03;0.03;;;8.10;85.50;;;;;;5011565;28;20049;-69
2023/01/13 07:49:02;;;;;;;0.10;0.10;;;8.10;85.50;;;;;;5011350;28;20112;-69
2023/01/13 07:51:27;;;;;;;0.08;0.08;;;8.10;85.10;;;;;;5009947;28;20491;-69
2023/01/13 07:53:53;;;;;;;0.47;0.47;;;8.10;84.40;;;;;;5011195;28;20092;-69
2023/01/13 07:56:18;;;;;;;0.00;0.00;;;8.20;84.50;;;;;;5010650;28;20045;-72
2023/01/13 07:58:49;;;;;;;0.50;0.50;;;8.20;84.20;;;;;;4999347;28;20513;-76
2023/01/13 08:01:16;;;;;;;0.10;0.10;;;8.20;83.80;;;;;;4992717;28;20057;-75
2023/01/13 08:03:42;;;;;;;0.05;0.05;;;8.30;84.10;;;;;;4992197;28;20041;-76
2023/01/13 08:06:08;;;;;;;0.15;0.15;;;8.30;84.00;;;;;;4986104;28;20049;-76
2023/01/13 08:08:34;;;;;;;0.00;0.00;;;8.30;83.50;;;;;;4992458;28;20046;-75
2023/01/13 08:11:01;;;;;;;0.00;0.00;;;8.40;83.20;;;;;;4997430;28;20050;-76
2023/01/13 08:13:27;;;;;;;0.10;0.10;;;8.40;83.10;;;;;;4994923;28;20045;-77
2023/01/13 08:15:58;;;;;;;0.00;0.00;;;8.50;82.50;;;;;;4998568;28;20040;-77
2023/01/13 08:18:24;;;;;;;0.47;0.47;;;8.50;82.80;;;;;;5008780;28;20048;-77
2023/01/13 08:20:53;;;;;;;0.00;0.00;;;8.50;82.60;;;;;;4982608;28;21242;-77
2023/01/13 08:23:21;;;;;;;0.95;0.95;;;8.50;82.60;;;;;;4994139;28;20034;-72
2023/01/13 08:25:47;;;;;;;0.08;0.08;;;8.60;82.10;;;;;;5007701;28;20061;-71
2023/01/13 08:28:13;;;;;;;0.20;0.20;;;8.60;82.10;;;;;;5005750;28;20713;-72
2023/01/13 08:30:39;;;;;;;0.20;0.20;;;8.60;82.20;;;;;;5007594;28;20037;-71
2023/01/13 08:33:06;;;;;;;0.00;0.00;;;8.60;81.90;;;;;;4999072;28;20046;-72
2023/01/13 08:35:34;;;;;;;0.10;0.10;;;8.60;82.30;;;;;;5004341;28;20038;-70
2023/01/13 08:38:00;;;;;;;0.00;0.00;;;8.60;82.40;;;;;;5006576;28;20084;-69
2023/01/13 08:40:25;;;;;;;0.20;0.20;;;8.60;82.70;;;;;;5003926;28;20057;-70
2023/01/13 08:42:53;;;;;;;0.00;0.00;;;8.50;83.20;;;;;;5006700;28;20695;-69
2023/01/13 08:45:19;;;;;;;0.00;0.00;;;8.40;84.00;;;;;;5005595;28;20073;-69
2023/01/13 08:47:44;;;;;;;13.70;1.98;;;8.30;84.50;;;;;;5006544;28;20111;-69
2023/01/13 08:50:10;;;;;;;2.10;2.00;;;8.10;85.10;;;;;;5004010;28;20044;-69
2023/01/13 08:52:36;;;;;;;1.90;1.75;;;8.00;85.60;;;;;;4981145;28;20053;-68
2023/01/13 08:55:02;;;;;;;0.00;0.00;;;8.00;86.20;;;;;;5007401;28;20045;-69
2023/01/13 08:57:28;;;;;;;0.00;0.00;;;7.90;86.60;;;;;;5005561;28;20125;-69
2023/01/13 08:59:53;;;;;;;0.38;0.38;;;7.90;86.90;;;;;;5007828;28;20137;-69
2023/01/13 09:02:21;;;;;;;0.00;0.00;;;7.90;87.20;;;;;;5007975;28;20107;-69
2023/01/13 09:04:47;;;;;;;0.63;0.63;;;7.90;87.10;;;;;;4999109;28;20430;-68
2023/01/13 09:07:14;;;;;;;1.73;1.65;;;7.80;87.80;;;;;;5007617;28;20034;-68
2023/01/13 09:09:40;;;;;;;1.17;1.13;;;7.80;88.40;;;;;;5007828;28;20140;-68
2023/01/13 09:14:51;;;;;;;0.17;0.17;;;7.90;88.50;;;;;;5007624;28;20045;-68
2023/01/13 09:17:17;;;;;;;0.00;0.00;;;7.80;89.00;;;;;;4999210;28;20486;-68
2023/01/13 09:19:43;;;;;;;0.00;0.00;;;7.80;89.10;;;;;;5007372;28;20125;-68
2023/01/13 09:22:14;;;;;;;0.40;0.40;;;7.70;89.10;;;;;;4997266;28;20391;-69
2023/01/13 09:24:39;;;;;;;0.10;0.10;;;7.80;89.20;;;;;;5007250;28;20038;-68
2023/01/13 09:27:05;;;;;;;0.10;0.10;;;7.80;88.90;;;;;;4981373;28;20050;-69
2023/01/13 09:29:30;;;;;;;0.63;0.63;;;7.90;88.90;;;;;;5007675;28;20038;-69
2023/01/13 09:31:57;;;;;;;0.05;0.05;;;8.00;88.50;;;;;;5007469;28;20168;-69
2023/01/13 09:37:08;;;;;;;1.05;1.00;;;7.90;88.70;;;;;;5005774;28;20406;-69
2023/01/13 09:39:35;;;;;;;0.22;0.22;;;7.90;88.90;;;;;;5007702;28;20053;-69
2023/01/13 09:45:19;;;;;;;0.00;0.00;;;7.90;88.60;;;;;;5005784;28;20045;-68
2023/01/13 09:48:04;;;;;;;0.00;0.00;;;7.90;88.30;;;;;;5006305;28;20053;-68
2023/01/13 09:50:46;;;;;;;0.75;0.75;;;8.00;88.50;;;;;;5005921;28;20180;-69
2023/01/13 09:53:27;;;;;;;0.32;0.32;;;7.80;88.70;;;;;;5006097;28;20049;-68
2023/01/13 09:55:53;;;;;;;2.40;0.63;;;7.80;88.70;;;;;;5006423;28;20566;-69
2023/01/13 09:58:19;;;;;;;0.00;0.00;;;7.90;88.20;;;;;;5006878;28;20050;-68
2023/01/13 10:00:54;;;;;;;0.10;0.10;;;8.00;87.70;;;;;;4994923;28;20053;-69
2023/01/13 10:03:31;;;;;;;0.00;0.00;;;8.00;88.10;;;;;;5005977;28;20453;-68
2023/01/13 10:06:03;;;;;;;0.00;0.00;;;8.10;88.20;;;;;;4995119;28;20048;-68
2023/01/13 10:08:34;;;;;;;0.63;0.63;;;8.00;88.30;;;;;;4996213;28;20056;-68
2023/01/13 10:13:49;;;;;;;0.00;0.00;;;8.10;87.50;;;;;;5004357;28;20057;-68
2023/01/13 10:16:40;;;;;;;2.20;2.05;;;8.10;87.40;;;;;;4996948;28;20073;-69
2023/01/13 10:19:17;;;;;;;0.00;0.00;;;8.20;86.90;;;;;;5006630;28;20502;-70
2023/01/13 10:22:11;;;;;;;2.53;1.45;;;8.30;86.80;;;;;;5004734;28;20131;-70
2023/01/13 10:25:03;;;;;;;5.05;0.90;;;8.30;86.30;;;;;;4996018;28;20042;-70
2023/01/13 10:27:38;;;;;;;0.00;0.00;;;8.30;86.10;;;;;;5005212;28;20045;-70
2023/01/13 10:30:32;;;;;;;0.65;0.65;;;8.40;86.00;;;;;;5006298;28;20068;-68
2023/01/13 10:33:00;;;;;;;0.80;0.80;;;8.40;85.70;;;;;;4992560;28;20049;-69
2023/01/13 10:35:51;;;;;;;0.00;0.00;;;8.50;85.50;;;;;;5006388;28;20127;-69
2023/01/13 10:38:24;;;;;;;0.17;0.17;;;8.50;84.60;;;;;;4981372;28;20042;-68
2023/01/13 10:40:54;;;;;;;21.35;1.30;;;8.50;84.80;;;;;;4996393;28;20065;-69
2023/01/13 10:43:20;;;;;;;0.00;0.00;;;8.50;85.10;;;;;;5006914;28;20049;-69
2023/01/13 10:45:58;;;;;;;0.00;0.00;;;8.50;85.00;;;;;;5006212;28;20093;-69
2023/01/13 10:48:38;;;;;;;0.00;0.00;;;8.60;84.70;;;;;;5006004;28;20038;-69
2023/01/13 10:51:40;;;;;;;0.20;0.20;;;8.50;84.80;;;;;;5006591;28;20057;-69
2023/01/13 10:54:12;;;;;;;0.00;0.00;;;8.50;84.80;;;;;;5006640;28;20034;-69
2023/01/13 10:56:40;;;;;;;0.10;0.10;;;8.60;84.70;;;;;;5006716;28;20067;-69
2023/01/13 10:59:16;;;;;;;0.10;0.10;;;8.60;84.40;;;;;;4984129;28;20089;-68
2023/01/13 11:01:58;;;;;;;0.00;0.00;;;8.60;84.60;;;;;;5009337;28;20045;-69
2023/01/13 11:04:26;;;;;;;1.52;1.42;;;8.60;84.60;;;;;;5009668;28;20044;-69
2023/01/13 11:06:52;;;;;;;0.40;0.40;;;8.70;84.50;;;;;;5009143;28;20410;-69
2023/01/13 11:09:19;;;;;;;9.07;2.30;;;8.70;84.10;;;;;;5009563;28;20049;-68
2023/01/13 11:11:54;;;;;;;1.45;0.85;;;8.80;83.70;;;;;;5008434;28;20046;-69
2023/01/13 11:14:40;;;;;;;0.00;0.00;;;8.90;83.40;;;;;;5007750;28;20748;-69
2023/01/13 11:17:08;;;;;;;0.00;0.00;;;8.90;83.40;;;;;;5007807;28;20044;-69
2023/01/13 11:19:36;;;;;;;0.00;0.00;;;8.90;83.20;;;;;;5008748;28;20050;-69
2023/01/13 11:22:35;;;;;;;2.92;0.65;;;8.90;83.50;;;;;;5009253;28;20856;-69
2023/01/13 11:25:03;;;;;;;0.15;0.15;;;8.90;83.40;;;;;;4974158;28;20120;-69
2023/01/13 11:27:52;;;;;;;0.00;0.00;;;8.90;83.80;;;;;;5008852;28;20052;-69
2023/01/13 11:30:28;;;;;;;0.10;0.10;;;8.90;83.90;;;;;;4998131;28;20050;-69
2023/01/13 11:33:09;;;;;;;1.75;1.00;;;8.90;84.20;;;;;;5008485;28;20060;-69
2023/01/13 11:35:40;;;;;;;0.00;0.00;;;8.90;83.60;;;;;;5009377;28;20045;-69
2023/01/13 11:38:30;;;;;;;1.45;1.35;;;8.90;83.50;;;;;;5009065;28;20045;-69
2023/01/13 11:41:07;;;;;;;0.30;0.30;;;8.90;83.40;;;;;;5008734;28;20053;-67
2023/01/13 11:43:50;;;;;;;0.00;0.00;;;8.90;83.70;;;;;;4996424;28;20053;-69
2023/01/13 11:46:16;;;;;;;0.38;0.38;;;8.90;83.20;;;;;;4997462;28;20052;-68
2023/01/13 11:48:42;;;;;;;0.38;0.38;;;9.00;82.80;;;;;;5008683;28;20042;-68
2023/01/13 11:51:26;;;;;;;0.00;0.00;;;9.00;83.00;;;;;;4998944;28;20060;-69
2023/01/13 11:54:11;;;;;;;0.00;0.00;;;9.00;83.30;;;;;;5006289;28;20048;-68
2023/01/13 11:56:53;;;;;;;0.10;0.10;;;9.00;83.10;;;;;;4998230;28;20041;-68
2023/01/13 11:59:49;;;;;;;0.00;0.00;;;9.00;83.30;;;;;;5007909;28;20057;-68
2023/01/13 12:02:30;;;;;;;0.00;0.00;;;9.10;83.40;;;;;;5008392;28;20391;-68
2023/01/13 12:05:24;;;;;;;0.00;0.00;;;9.10;83.00;;;;;;5005221;28;20080;-69
2023/01/13 12:08:09;;;;;;;0.00;0.00;;;9.00;83.00;;;;;;4999487;28;20038;-68
2023/01/13 12:10:57;;;;;;;0.00;0.00;;;9.00;83.20;;;;;;5007124;28;20046;-68
2023/01/13 12:14:00;;;;;;;0.47;0.47;;;9.00;83.20;;;;;;5009041;28;20034;-69
2023/01/13 12:16:29;;;;;;;0.00;0.00;;;9.10;83.60;;;;;;5004250;28;20145;-69
2023/01/13 12:18:58;;;;;;;0.10;0.10;;;9.10;83.70;;;;;;5008059;28;20395;-69
2023/01/13 12:21:36;;;;;;;2.92;1.65;;;9.10;82.70;;;;;;5007731;28;20042;-69
2023/01/13 12:24:49;;;;;;;0.00;0.00;;;9.00;82.80;;;;;;5008876;28;20507;-68
2023/01/13 12:27:44;;;;;;;0.00;0.00;;;9.10;82.30;;;;;;4914593;29;20497;-67
2023/01/13 12:30:16;;;;;;;0.00;0.00;;;9.10;82.60;;;;;;4915146;29;20051;-68
2023/01/13 12:32:44;;;;;;;0.10;0.10;;;9.10;82.40;;;;;;4986946;28;20503;-68
2023/01/13 12:35:30;;;;;;;0.03;0.03;;;9.10;82.50;;;;;;5007529;28;20069;-68
2023/01/13 12:38:23;;;;;;;0.20;0.20;;;9.20;82.50;;;;;;5008657;28;20049;-68
2023/01/13 12:41:10;;;;;;;0.20;0.20;;;9.10;82.90;;;;;;5007960;28;20058;-69
2023/01/13 12:46:21;;;;;;;1.90;0.65;;;9.10;83.20;;;;;;5008812;28;20089;-69
2023/01/13 12:48:58;;;;;;;0.00;0.00;;;9.00;82.70;;;;;;5007616;28;20528;-69
2023/01/13 12:51:25;;;;;;;0.00;0.00;;;9.10;82.80;;;;;;4997937;28;20487;-70
2023/01/13 12:53:51;;;;;;;0.05;0.05;;;9.10;83.00;;;;;;4980511;28;20044;-70
2023/01/13 12:56:28;;;;;;;0.00;0.00;;;9.10;83.20;;;;;;5007303;28;20049;-70
2023/01/13 12:59:17;;;;;;;0.00;0.00;;;9.10;82.80;;;;;;4980729;28;20054;-69
2023/01/13 13:01:45;;;;;;;0.00;0.00;;;9.10;83.10;;;;;;4998282;28;20042;-70
2023/01/13 13:04:13;;;;;;;0.32;0.32;;;9.10;82.70;;;;;;5007212;28;20038;-69
2023/01/13 13:06:50;;;;;;;0.00;0.00;;;9.10;82.90;;;;;;5007662;28;20132;-70
2023/01/13 13:09:43;;;;;;;0.00;0.00;;;9.10;83.10;;;;;;5007200;28;20491;-70
2023/01/13 13:15:35;;;;;;;0.00;0.00;;;9.10;82.80;;;;;;5006851;28;20483;-69
2023/01/13 13:18:20;;;;;;;0.50;0.50;;;9.10;81.60;;;;;;5003790;28;20572;-69
2023/01/13 13:21:00;;;;;;;0.00;0.00;;;9.10;82.00;;;;;;5006764;28;20044;-68
2023/01/13 13:23:47;;;;;;;0.00;0.00;;;9.10;82.20;;;;;;4980446;28;20052;-69
2023/01/13 13:26:23;;;;;;;0.10;0.10;;;9.10;81.90;;;;;;4982479;28;20130;-69
2023/01/13 13:29:16;;;;;;;0.00;0.00;;;9.10;81.90;;;;;;5005743;28;20122;-69
2023/01/13 13:32:09;;;;;;;0.00;0.00;;;9.10;81.70;;;;;;5006686;28;20127;-69
2023/01/13 13:34:55;;;;;;;0.65;0.65;;;9.20;81.50;;;;;;4997246;28;20064;-69
2023/01/13 13:46:47;;;;;;;1.65;1.55;;;9.10;81.60;;;;;;5007741;28;20499;-69
2023/01/13 13:49:18;;;;;;;0.00;0.00;;;9.20;81.50;;;;;;5007314;28;20548;-69
2023/01/13 13:51:52;;;;;;;0.00;0.00;;;9.20;81.90;;;;;;4996830;28;20517;-69
2023/01/13 13:54:21;;;;;;;0.00;0.00;;;9.10;81.70;;;;;;5007111;28;21341;-69
2023/01/13 13:56:49;;;;;;;0.80;0.80;;;9.20;81.60;;;;;;5006944;28;20184;-69
2023/01/13 13:59:20;;;;;;;2.65;1.55;;;9.20;81.60;;;;;;5006370;28;20403;-69
2023/01/13 14:01:52;;;;;;;0.00;0.00;;;9.20;82.00;;;;;;5006854;28;20120;-69
2023/01/13 14:04:21;;;;;;;12.63;0.85;;;9.20;82.20;;;;;;5007223;28;20073;-69
2023/01/13 14:07:19;;;;;;;0.00;0.00;;;9.10;82.40;;;;;;5006720;28;20057;-69
2023/01/13 14:09:49;;;;;;;6.13;1.95;;;9.10;82.20;;;;;;5007023;28;20415;-69
2023/01/13 14:12:24;;;;;;;4.30;1.95;;;9.10;82.80;;;;;;5007063;28;20056;-69
2023/01/13 14:14:50;;;;;;;0.00;0.00;;;9.20;82.60;;;;;;5007037;28;20046;-69
2023/01/13 14:17:26;;;;;;;0.00;0.00;;;9.10;82.20;;;;;;5006809;28;20049;-69
2023/01/13 14:20:15;;;;;;;0.00;0.00;;;9.10;82.40;;;;;;5007310;28;20038;-69
2023/01/13 14:22:50;;;;;;;0.90;0.90;;;9.10;82.50;;;;;;5006899;28;20172;-69
2023/01/13 14:25:38;;;;;;;0.10;0.10;;;9.20;82.50;;;;;;5006795;28;20065;-69